sensor_id;sensor_type;location;lat;lon;timestamp;pressure;altitude;pressure_sealevel;temperature;humidity
42001;BME280;27689;48.390;10.856;2023-02-18T00:00:22;96982.44;;;11.02;100.00
42001;BME280;27689;48.390;10.856;2023-02-18T00:03:06;96983.09;;;11.15;100.00
42001;BME280;27689;48.390;10.856;2023-02-18T00:05:51;96976.34;;;11.12;100.00
42001;BME280;27689;48.390;10.856;2023-02-18T00:08:34;96967.63;;;11.12;100.00
42001;BME280;27689;48.390;10.856;2023-02-18T00:11:20;96969.69;;;11.08;100.00
42001;BME280;27689;48.390;10.856;2023-02-18T00:14:09;96963.34;;;11.11;100.00
42001;BME280;27689;48.390;10.856;2023-02-18T00:16:54;96965.97;;;11.11;100.00
42001;BME280;27689;48.390;10.856;2023-02-18T00:19:38;96959.19;;;11.08;100.00
42001;BME280;27689;48.390;10.856;2023-02-18T00:22:22;96955.72;;;11.08;100.00
42001;BME280;27689;48.390;10.856;2023-02-18T00:25:06;96965.13;;;11.10;100.00
42001;BME280;27689;48.390;10.856;2023-02-18T00:27:51;96963.06;;;11.14;100.00
42001;BME280;27689;48.390;10.856;2023-02-18T00:30:41;96970.75;;;11.26;99.23
42001;BME280;27689;48.390;10.856;2023-02-18T00:33:25;96966.47;;;11.25;99.19
42001;BME280;27689;48.390;10.856;2023-02-18T00:36:12;96958.28;;;11.19;100.00
42001;BME280;27689;48.390;10.856;2023-02-18T00:38:59;96968.75;;;11.19;99.76
42001;BME280;27689;48.390;10.856;2023-02-18T00:41:43;96966.69;;;11.13;100.00
42001;BME280;27689;48.390;10.856;2023-02-18T00:44:27;96954.44;;;11.23;99.09
42001;BME280;27689;48.390;10.856;2023-02-18T00:47:11;96958.97;;;11.21;99.22
42001;BME280;27689;48.390;10.856;2023-02-18T00:49:55;96962.56;;;11.20;99.19
42001;BME280;27689;48.390;10.856;2023-02-18T00:52:38;96960.09;;;11.28;98.68
42001;BME280;27689;48.390;10.856;2023-02-18T00:55:23;96949.91;;;11.25;98.30
42001;BME280;27689;48.390;10.856;2023-02-18T00:58:06;96956.94;;;11.24;98.54
42001;BME280;27689;48.390;10.856;2023-02-18T01:00:51;96954.84;;;11.28;98.27
42001;BME280;27689;48.390;10.856;2023-02-18T01:03:36;96957.34;;;11.29;98.39
42001;BME280;27689;48.390;10.856;2023-02-18T01:06:20;96958.97;;;11.21;98.86
42001;BME280;27689;48.390;10.856;2023-02-18T01:09:07;96952.53;;;11.25;99.05
42001;BME280;27689;48.390;10.856;2023-02-18T01:11:51;96956.25;;;11.32;99.07
42001;BME280;27689;48.390;10.856;2023-02-18T01:14:35;96959.09;;;11.40;98.08
42001;BME280;27689;48.390;10.856;2023-02-18T01:17:19;96955.28;;;11.23;99.11
42001;BME280;27689;48.390;10.856;2023-02-18T01:20:03;96939.91;;;11.19;99.69
42001;BME280;27689;48.390;10.856;2023-02-18T01:22:48;96943.31;;;11.10;100.00
42001;BME280;27689;48.390;10.856;2023-02-18T01:25:32;96948.94;;;11.26;99.96
42001;BME280;27689;48.390;10.856;2023-02-18T01:28:17;96945.72;;;11.22;99.78
42001;BME280;27689;48.390;10.856;2023-02-18T01:31:05;96943.88;;;11.13;100.00
42001;BME280;27689;48.390;10.856;2023-02-18T01:33:49;96945.25;;;11.08;100.00
42001;BME280;27689;48.390;10.856;2023-02-18T01:36:33;96940.44;;;11.13;100.00
42001;BME280;27689;48.390;10.856;2023-02-18T01:39:17;96933.38;;;11.13;100.00
42001;BME280;27689;48.390;10.856;2023-02-18T01:42:01;96944.31;;;11.18;100.00
42001;BME280;27689;48.390;10.856;2023-02-18T01:44:47;96937.38;;;11.08;100.00
42001;BME280;27689;48.390;10.856;2023-02-18T01:47:31;96940.28;;;11.14;100.00
42001;BME280;27689;48.390;10.856;2023-02-18T01:50:15;96941.31;;;11.23;100.00
42001;BME280;27689;48.390;10.856;2023-02-18T01:52:59;96948.81;;;11.07;100.00
42001;BME280;27689;48.390;10.856;2023-02-18T01:55:44;96939.88;;;11.09;100.00
42001;BME280;27689;48.390;10.856;2023-02-18T01:58:29;96942.78;;;11.16;100.00
42001;BME280;27689;48.390;10.856;2023-02-18T02:01:13;96929.63;;;11.06;100.00
42001;BME280;27689;48.390;10.856;2023-02-18T02:03:58;96928.94;;;11.04;100.00
42001;BME280;27689;48.390;10.856;2023-02-18T02:06:42;96926.88;;;11.08;100.00
42001;BME280;27689;48.390;10.856;2023-02-18T02:09:28;96928.53;;;11.09;100.00
42001;BME280;27689;48.390;10.856;2023-02-18T02:12:56;96930.72;;;11.04;100.00
42001;BME280;27689;48.390;10.856;2023-02-18T02:15:50;96910.78;;;10.91;100.00
42001;BME280;27689;48.390;10.856;2023-02-18T02:25:11;96904.88;;;10.99;100.00
42001;BME280;27689;48.390;10.856;2023-02-18T02:30:57;96919.22;;;10.95;100.00
42001;BME280;27689;48.390;10.856;2023-02-18T02:34:13;96904.13;;;10.87;100.00
42001;BME280;27689;48.390;10.856;2023-02-18T02:37:24;96907.19;;;10.92;100.00
42001;BME280;27689;48.390;10.856;2023-02-18T02:43:24;96904.38;;;10.84;100.00
42001;BME280;27689;48.390;10.856;2023-02-18T02:46:30;96893.47;;;10.79;100.00
42001;BME280;27689;48.390;10.856;2023-02-18T02:52:17;96880.75;;;10.75;100.00
42001;BME280;27689;48.390;10.856;2023-02-18T02:55:10;96879.41;;;10.80;100.00
42001;BME280;27689;48.390;10.856;2023-02-18T02:57:56;96876.34;;;10.75;100.00
42001;BME280;27689;48.390;10.856;2023-02-18T03:01:00;96877.50;;;10.82;100.00
42001;BME280;27689;48.390;10.856;2023-02-18T03:16:02;96858.97;;;10.84;100.00
42001;BME280;27689;48.390;10.856;2023-02-18T03:19:00;96858.44;;;10.80;100.00
42001;BME280;27689;48.390;10.856;2023-02-18T03:21:57;96854.28;;;10.78;100.00
42001;BME280;27689;48.390;10.856;2023-02-18T03:24:45;96856.78;;;10.79;99.89
42001;BME280;27689;48.390;10.856;2023-02-18T03:27:49;96873.38;;;10.89;99.07
42001;BME280;27689;48.390;10.856;2023-02-18T03:30:55;96872.53;;;10.89;97.99
42001;BME280;27689;48.390;10.856;2023-02-18T03:34:15;96876.81;;;10.90;97.74
42001;BME280;27689;48.390;10.856;2023-02-18T03:36:59;96874.91;;;10.92;97.29
42001;BME280;27689;48.390;10.856;2023-02-18T03:39:47;96872.09;;;10.84;97.66
42001;BME280;27689;48.390;10.856;2023-02-18T03:42:33;96874.41;;;10.77;98.79
42001;BME280;27689;48.390;10.856;2023-02-18T03:45:17;96861.75;;;10.82;98.53
42001;BME280;27689;48.390;10.856;2023-02-18T03:48:00;96846.94;;;10.72;98.92
42001;BME280;27689;48.390;10.856;2023-02-18T03:50:44;96855.00;;;10.80;99.09
42001;BME280;27689;48.390;10.856;2023-02-18T03:53:29;96858.97;;;10.84;99.92
42001;BME280;27689;48.390;10.856;2023-02-18T03:56:14;96864.63;;;10.79;100.00
42001;BME280;27689;48.390;10.856;2023-02-18T03:58:58;96844.19;;;10.73;100.00
42001;BME280;27689;48.390;10.856;2023-02-18T04:01:42;96859.91;;;10.73;100.00
42001;BME280;27689;48.390;10.856;2023-02-18T04:04:26;96851.88;;;10.65;100.00
42001;BME280;27689;48.390;10.856;2023-02-18T04:07:09;96867.59;;;10.65;100.00
42001;BME280;27689;48.390;10.856;2023-02-18T04:09:54;96870.22;;;10.65;100.00
42001;BME280;27689;48.390;10.856;2023-02-18T04:12:37;96870.97;;;10.77;100.00
42001;BME280;27689;48.390;10.856;2023-02-18T04:15:21;96876.47;;;10.74;100.00
42001;BME280;27689;48.390;10.856;2023-02-18T04:18:05;96872.72;;;10.67;100.00
42001;BME280;27689;48.390;10.856;2023-02-18T04:20:49;96881.13;;;10.70;100.00
42001;BME280;27689;48.390;10.856;2023-02-18T04:23:33;96884.69;;;10.69;100.00
42001;BME280;27689;48.390;10.856;2023-02-18T04:26:17;96879.75;;;10.66;100.00
42001;BME280;27689;48.390;10.856;2023-02-18T04:29:01;96878.06;;;10.65;100.00
42001;BME280;27689;48.390;10.856;2023-02-18T04:31:45;96888.84;;;10.72;100.00
42001;BME280;27689;48.390;10.856;2023-02-18T04:34:29;96881.56;;;10.75;100.00
42001;BME280;27689;48.390;10.856;2023-02-18T04:37:13;96886.81;;;10.75;100.00
42001;BME280;27689;48.390;10.856;2023-02-18T04:39:57;96867.47;;;10.67;100.00
42001;BME280;27689;48.390;10.856;2023-02-18T04:42:41;96883.50;;;10.73;100.00
42001;BME280;27689;48.390;10.856;2023-02-18T04:45:26;96879.09;;;10.74;100.00
42001;BME280;27689;48.390;10.856;2023-02-18T04:48:10;96870.75;;;10.69;100.00
42001;BME280;27689;48.390;10.856;2023-02-18T04:50:55;96875.88;;;10.70;100.00
42001;BME280;27689;48.390;10.856;2023-02-18T04:53:38;96877.66;;;10.70;100.00
42001;BME280;27689;48.390;10.856;2023-02-18T04:56:22;96886.25;;;10.72;100.00
42001;BME280;27689;48.390;10.856;2023-02-18T04:59:06;96883.50;;;10.73;99.87
42001;BME280;27689;48.390;10.856;2023-02-18T05:01:50;96884.03;;;10.67;100.00
42001;BME280;27689;48.390;10.856;2023-02-18T05:04:34;96880.06;;;10.52;100.00
42001;BME280;27689;48.390;10.856;2023-02-18T05:07:18;96868.41;;;10.45;100.00
42001;BME280;27689;48.390;10.856;2023-02-18T05:10:02;96881.97;;;10.50;100.00
42001;BME280;27689;48.390;10.856;2023-02-18T05:12:46;96883.34;;;10.54;100.00
42001;BME280;27689;48.390;10.856;2023-02-18T05:15:30;96860.19;;;10.49;100.00
42001;BME280;27689;48.390;10.856;2023-02-18T05:18:14;96862.56;;;10.52;100.00
42001;BME280;27689;48.390;10.856;2023-02-18T05:20:58;96864.75;;;10.57;100.00
42001;BME280;27689;48.390;10.856;2023-02-18T05:23:42;96861.00;;;10.50;100.00
42001;BME280;27689;48.390;10.856;2023-02-18T05:26:26;96861.38;;;10.45;100.00
42001;BME280;27689;48.390;10.856;2023-02-18T05:29:10;96859.22;;;10.50;100.00
42001;BME280;27689;48.390;10.856;2023-02-18T05:31:53;96862.41;;;10.54;100.00
42001;BME280;27689;48.390;10.856;2023-02-18T05:34:37;96871.03;;;10.45;100.00
42001;BME280;27689;48.390;10.856;2023-02-18T05:37:21;96859.59;;;10.46;100.00
42001;BME280;27689;48.390;10.856;2023-02-18T05:40:06;96861.38;;;10.45;100.00
42001;BME280;27689;48.390;10.856;2023-02-18T05:42:50;96863.41;;;10.42;100.00
42001;BME280;27689;48.390;10.856;2023-02-18T05:45:34;96867.09;;;10.50;100.00
42001;BME280;27689;48.390;10.856;2023-02-18T05:48:18;96870.25;;;10.54;100.00
42001;BME280;27689;48.390;10.856;2023-02-18T05:51:02;96877.88;;;10.57;99.63
42001;BME280;27689;48.390;10.856;2023-02-18T05:53:46;96891.81;;;10.57;100.00
42001;BME280;27689;48.390;10.856;2023-02-18T05:56:30;96901.56;;;10.55;100.00
42001;BME280;27689;48.390;10.856;2023-02-18T05:59:14;96899.41;;;10.60;100.00
42001;BME280;27689;48.390;10.856;2023-02-18T06:01:58;96895.50;;;10.55;100.00
42001;BME280;27689;48.390;10.856;2023-02-18T06:04:43;96894.66;;;10.54;100.00
42001;BME280;27689;48.390;10.856;2023-02-18T06:07:27;96906.94;;;10.54;100.00
42001;BME280;27689;48.390;10.856;2023-02-18T06:10:11;96901.50;;;10.46;100.00
42001;BME280;27689;48.390;10.856;2023-02-18T06:12:55;96912.34;;;10.41;100.00
42001;BME280;27689;48.390;10.856;2023-02-18T06:15:40;96906.28;;;10.41;100.00
42001;BME280;27689;48.390;10.856;2023-02-18T06:18:24;96897.75;;;10.39;100.00
42001;BME280;27689;48.390;10.856;2023-02-18T06:21:08;96897.41;;;10.32;100.00
42001;BME280;27689;48.390;10.856;2023-02-18T06:23:52;96905.19;;;10.22;100.00
42001;BME280;27689;48.390;10.856;2023-02-18T06:26:36;96903.59;;;10.31;100.00
42001;BME280;27689;48.390;10.856;2023-02-18T06:29:20;96900.78;;;10.23;100.00
42001;BME280;27689;48.390;10.856;2023-02-18T06:32:04;96905.19;;;10.22;100.00
42001;BME280;27689;48.390;10.856;2023-02-18T06:34:48;96903.97;;;10.27;100.00
42001;BME280;27689;48.390;10.856;2023-02-18T06:37:32;96903.00;;;10.28;100.00
42001;BME280;27689;48.390;10.856;2023-02-18T06:40:16;96893.31;;;10.39;100.00
42001;BME280;27689;48.390;10.856;2023-02-18T06:43:01;96893.13;;;10.31;100.00
42001;BME280;27689;48.390;10.856;2023-02-18T06:45:45;96891.59;;;10.29;100.00
42001;BME280;27689;48.390;10.856;2023-02-18T06:48:29;96889.91;;;10.28;100.00
42001;BME280;27689;48.390;10.856;2023-02-18T06:51:13;96879.31;;;10.29;100.00
42001;BME280;27689;48.390;10.856;2023-02-18T06:53:58;96878.63;;;10.27;100.00
42001;BME280;27689;48.390;10.856;2023-02-18T06:56:42;96878.06;;;10.23;100.00
42001;BME280;27689;48.390;10.856;2023-02-18T06:59:26;96883.47;;;10.32;100.00
42001;BME280;27689;48.390;10.856;2023-02-18T07:02:14;96880.28;;;10.28;100.00
42001;BME280;27689;48.390;10.856;2023-02-18T07:04:58;96885.97;;;10.33;100.00
42001;BME280;27689;48.390;10.856;2023-02-18T07:07:43;96886.09;;;10.32;100.00
42001;BME280;27689;48.390;10.856;2023-02-18T07:10:30;96892.22;;;10.42;100.00
42001;BME280;27689;48.390;10.856;2023-02-18T07:13:18;96873.91;;;10.42;100.00
42001;BME280;27689;48.390;10.856;2023-02-18T07:16:02;96883.28;;;10.44;100.00
42001;BME280;27689;48.390;10.856;2023-02-18T07:18:46;96883.25;;;10.35;100.00
42001;BME280;27689;48.390;10.856;2023-02-18T07:21:30;96879.19;;;10.31;100.00
42001;BME280;27689;48.390;10.856;2023-02-18T07:24:14;96883.81;;;10.38;100.00
42001;BME280;27689;48.390;10.856;2023-02-18T07:26:58;96896.75;;;10.40;100.00
42001;BME280;27689;48.390;10.856;2023-02-18T07:29:42;96895.38;;;10.36;100.00
42001;BME280;27689;48.390;10.856;2023-02-18T07:32:26;96888.28;;;10.47;100.00
42001;BME280;27689;48.390;10.856;2023-02-18T07:35:12;96884.34;;;10.53;100.00
42001;BME280;27689;48.390;10.856;2023-02-18T07:37:57;96886.63;;;10.46;100.00
42001;BME280;27689;48.390;10.856;2023-02-18T07:40:44;96881.97;;;10.50;100.00
42001;BME280;27689;48.390;10.856;2023-02-18T07:43:28;96885.53;;;10.49;100.00
42001;BME280;27689;48.390;10.856;2023-02-18T07:46:12;96874.81;;;10.52;100.00
42001;BME280;27689;48.390;10.856;2023-02-18T07:48:56;96870.72;;;10.59;99.49
42001;BME280;27689;48.390;10.856;2023-02-18T07:51:40;96866.56;;;10.56;99.71
42001;BME280;27689;48.390;10.856;2023-02-18T07:54:25;96864.63;;;10.58;99.64
42001;BME280;27689;48.390;10.856;2023-02-18T07:57:09;96860.09;;;10.60;99.48
42001;BME280;27689;48.390;10.856;2023-02-18T07:59:53;96853.31;;;10.58;99.41
42001;BME280;27689;48.390;10.856;2023-02-18T08:02:36;96867.47;;;10.67;98.95
42001;BME280;27689;48.390;10.856;2023-02-18T08:05:21;96862.47;;;10.64;98.67
42001;BME280;27689;48.390;10.856;2023-02-18T08:08:05;96864.06;;;10.76;98.14
42001;BME280;27689;48.390;10.856;2023-02-18T08:10:49;96860.94;;;10.82;97.45
42001;BME280;27689;48.390;10.856;2023-02-18T08:13:33;96853.63;;;10.85;97.15
42001;BME280;27689;48.390;10.856;2023-02-18T08:16:19;96847.41;;;10.86;97.11
42001;BME280;27689;48.390;10.856;2023-02-18T08:19:03;96838.19;;;10.82;97.11
42001;BME280;27689;48.390;10.856;2023-02-18T08:21:47;96833.75;;;10.83;97.10
42001;BME280;27689;48.390;10.856;2023-02-18T08:24:31;96832.38;;;10.88;96.36
42001;BME280;27689;48.390;10.856;2023-02-18T08:27:15;96840.03;;;11.01;94.74
42001;BME280;27689;48.390;10.856;2023-02-18T08:29:59;96843.34;;;11.03;95.03
42001;BME280;27689;48.390;10.856;2023-02-18T08:32:43;96831.06;;;11.04;95.04
42001;BME280;27689;48.390;10.856;2023-02-18T08:35:27;96823.91;;;11.06;94.70
42001;BME280;27689;48.390;10.856;2023-02-18T08:38:11;96836.75;;;11.09;94.32
42001;BME280;27689;48.390;10.856;2023-02-18T08:41:02;96840.78;;;11.13;93.67
42001;BME280;27689;48.390;10.856;2023-02-18T08:43:47;96836.22;;;11.15;93.91
42001;BME280;27689;48.390;10.856;2023-02-18T08:46:31;96833.59;;;11.15;93.20
42001;BME280;27689;48.390;10.856;2023-02-18T08:49:15;96831.53;;;11.18;93.27
42001;BME280;27689;48.390;10.856;2023-02-18T08:51:59;96827.44;;;11.25;92.61
42001;BME280;27689;48.390;10.856;2023-02-18T08:54:43;96828.69;;;11.31;92.02
42001;BME280;27689;48.390;10.856;2023-02-18T08:57:27;96830.75;;;11.27;91.96
42001;BME280;27689;48.390;10.856;2023-02-18T09:00:12;96831.63;;;11.38;91.71
42001;BME280;27689;48.390;10.856;2023-02-18T09:02:56;96828.16;;;11.27;91.19
42001;BME280;27689;48.390;10.856;2023-02-18T09:05:41;96824.84;;;11.35;91.53
42001;BME280;27689;48.390;10.856;2023-02-18T09:08:25;96821.00;;;11.39;90.79
42001;BME280;27689;48.390;10.856;2023-02-18T09:11:10;96819.47;;;11.46;89.90
42001;BME280;27689;48.390;10.856;2023-02-18T09:13:54;96806.22;;;11.48;89.25
42001;BME280;27689;48.390;10.856;2023-02-18T09:16:39;96797.53;;;11.47;89.12
42001;BME280;27689;48.390;10.856;2023-02-18T09:19:24;96798.53;;;11.56;89.54
42001;BME280;27689;48.390;10.856;2023-02-18T09:22:08;96786.91;;;11.68;88.44
42001;BME280;27689;48.390;10.856;2023-02-18T09:24:52;96777.28;;;11.78;88.27
42001;BME280;27689;48.390;10.856;2023-02-18T09:27:36;96787.91;;;11.77;87.48
42001;BME280;27689;48.390;10.856;2023-02-18T09:30:23;96783.09;;;11.91;86.69
42001;BME280;27689;48.390;10.856;2023-02-18T09:33:07;96775.34;;;12.09;86.24
42001;BME280;27689;48.390;10.856;2023-02-18T09:35:50;96773.94;;;12.24;83.88
42001;BME280;27689;48.390;10.856;2023-02-18T09:38:35;96777.78;;;12.40;83.33
42001;BME280;27689;48.390;10.856;2023-02-18T09:41:55;96776.50;;;12.53;83.41
42001;BME280;27689;48.390;10.856;2023-02-18T09:44:46;96767.09;;;12.60;82.57
42001;BME280;27689;48.390;10.856;2023-02-18T09:47:35;96757.09;;;12.64;81.53
42001;BME280;27689;48.390;10.856;2023-02-18T09:50:26;96745.28;;;12.78;81.51
42001;BME280;27689;48.390;10.856;2023-02-18T09:53:11;96751.56;;;12.94;79.09
42001;BME280;27689;48.390;10.856;2023-02-18T09:55:56;96754.59;;;12.99;78.56
42001;BME280;27689;48.390;10.856;2023-02-18T09:58:40;96751.81;;;13.01;76.95
42001;BME280;27689;48.390;10.856;2023-02-18T10:01:37;96746.72;;;12.99;77.33
42001;BME280;27689;48.390;10.856;2023-02-18T10:04:35;96741.03;;;12.94;77.91
42001;BME280;27689;48.390;10.856;2023-02-18T10:07:24;96745.34;;;12.95;77.36
42001;BME280;27689;48.390;10.856;2023-02-18T10:10:24;96735.09;;;12.92;77.16
42001;BME280;27689;48.390;10.856;2023-02-18T10:13:16;96733.78;;;13.06;76.37
42001;BME280;27689;48.390;10.856;2023-02-18T10:16:01;96728.63;;;13.14;77.01
42001;BME280;27689;48.390;10.856;2023-02-18T10:18:53;96728.00;;;13.02;75.96
42001;BME280;27689;48.390;10.856;2023-02-18T10:21:38;96722.47;;;13.05;76.84
42001;BME280;27689;48.390;10.856;2023-02-18T10:24:34;96726.22;;;13.03;76.11
42001;BME280;27689;48.390;10.856;2023-02-18T10:27:26;96706.50;;;13.17;75.98
42001;BME280;27689;48.390;10.856;2023-02-18T10:33:26;96698.91;;;13.31;75.51
42001;BME280;27689;48.390;10.856;2023-02-18T10:36:24;96707.94;;;13.29;74.51
42001;BME280;27689;48.390;10.856;2023-02-18T10:45:41;96684.31;;;13.72;73.80
42001;BME280;27689;48.390;10.856;2023-02-18T10:48:50;96679.38;;;13.95;72.78
42001;BME280;27689;48.390;10.856;2023-02-18T10:51:43;96669.78;;;14.12;74.17
42001;BME280;27689;48.390;10.856;2023-02-18T10:57:45;96665.91;;;13.98;71.21
42001;BME280;27689;48.390;10.856;2023-02-18T11:00:34;96677.50;;;14.05;71.54
42001;BME280;27689;48.390;10.856;2023-02-18T11:03:23;96667.41;;;14.27;70.90
42001;BME280;27689;48.390;10.856;2023-02-18T11:06:31;96664.47;;;14.30;70.49
42001;BME280;27689;48.390;10.856;2023-02-18T11:09:26;96679.44;;;14.29;69.84
42001;BME280;27689;48.390;10.856;2023-02-18T11:12:16;96672.81;;;14.25;70.56
42001;BME280;27689;48.390;10.856;2023-02-18T11:15:15;96681.31;;;14.11;70.10
42001;BME280;27689;48.390;10.856;2023-02-18T11:21:36;96678.31;;;14.06;71.58
42001;BME280;27689;48.390;10.856;2023-02-18T11:24:20;96672.97;;;13.98;71.41
42001;BME280;27689;48.390;10.856;2023-02-18T11:27:17;96648.00;;;14.02;71.19
42001;BME280;27689;48.390;10.856;2023-02-18T11:33:07;96656.72;;;13.76;71.44
42001;BME280;27689;48.390;10.856;2023-02-18T11:35:55;96659.94;;;13.70;71.62
42001;BME280;27689;48.390;10.856;2023-02-18T11:38:44;96659.84;;;13.80;71.14
42001;BME280;27689;48.390;10.856;2023-02-18T11:41:38;96661.19;;;13.84;70.78
42001;BME280;27689;48.390;10.856;2023-02-18T11:52:52;96654.56;;;13.80;70.64
42001;BME280;27689;48.390;10.856;2023-02-18T11:55:53;96642.22;;;13.81;70.12
42001;BME280;27689;48.390;10.856;2023-02-18T11:58:40;96642.56;;;13.77;70.60
42001;BME280;27689;48.390;10.856;2023-02-18T12:01:44;96635.50;;;13.78;71.06
42001;BME280;27689;48.390;10.856;2023-02-18T12:04:46;96625.44;;;13.82;70.33
42001;BME280;27689;48.390;10.856;2023-02-18T12:07:46;96612.50;;;13.88;70.11
42001;BME280;27689;48.390;10.856;2023-02-18T12:10:35;96601.19;;;13.96;69.88
42001;BME280;27689;48.390;10.856;2023-02-18T12:13:26;96589.00;;;13.95;69.76
42001;BME280;27689;48.390;10.856;2023-02-18T12:16:34;96591.00;;;14.01;69.60
42001;BME280;27689;48.390;10.856;2023-02-18T12:28:55;96568.88;;;14.20;68.92
42001;BME280;27689;48.390;10.856;2023-02-18T12:31:58;96573.88;;;14.31;68.81
42001;BME280;27689;48.390;10.856;2023-02-18T12:35:06;96576.13;;;14.52;67.95
42001;BME280;27689;48.390;10.856;2023-02-18T12:38:32;96579.38;;;14.45;67.86
42001;BME280;27689;48.390;10.856;2023-02-18T12:41:31;96582.56;;;14.23;67.24
42001;BME280;27689;48.390;10.856;2023-02-18T12:53:28;96568.28;;;14.00;69.60
42001;BME280;27689;48.390;10.856;2023-02-18T12:59:55;96572.88;;;13.98;70.03
42001;BME280;27689;48.390;10.856;2023-02-18T13:03:10;96574.22;;;14.02;70.30
42001;BME280;27689;48.390;10.856;2023-02-18T13:12:14;96571.50;;;13.86;71.04
42001;BME280;27689;48.390;10.856;2023-02-18T13:15:04;96559.38;;;13.93;71.03
42001;BME280;27689;48.390;10.856;2023-02-18T13:17:50;96563.91;;;13.83;70.96
42001;BME280;27689;48.390;10.856;2023-02-18T13:20:48;96557.34;;;13.87;71.55
42001;BME280;27689;48.390;10.856;2023-02-18T13:23:38;96575.78;;;13.87;71.54
42001;BME280;27689;48.390;10.856;2023-02-18T13:26:23;96556.78;;;13.75;71.38
42001;BME280;27689;48.390;10.856;2023-02-18T13:32:37;96565.56;;;13.84;71.86
42001;BME280;27689;48.390;10.856;2023-02-18T13:41:02;96548.88;;;13.75;71.62
42001;BME280;27689;48.390;10.856;2023-02-18T13:43:47;96544.97;;;13.79;71.67
42001;BME280;27689;48.390;10.856;2023-02-18T13:46:46;96551.53;;;13.75;70.40
42001;BME280;27689;48.390;10.856;2023-02-18T13:49:34;96546.09;;;13.76;70.10
42001;BME280;27689;48.390;10.856;2023-02-18T13:52:20;96555.97;;;13.74;69.87
42001;BME280;27689;48.390;10.856;2023-02-18T13:55:04;96554.34;;;13.82;69.09
42001;BME280;27689;48.390;10.856;2023-02-18T13:57:52;96548.75;;;13.85;68.53
42001;BME280;27689;48.390;10.856;2023-02-18T14:00:39;96560.03;;;13.95;68.33
42001;BME280;27689;48.390;10.856;2023-02-18T14:06:34;96550.88;;;13.81;67.94
42001;BME280;27689;48.390;10.856;2023-02-18T14:23:58;96542.28;;;13.71;68.58
42001;BME280;27689;48.390;10.856;2023-02-18T14:26:46;96557.19;;;13.88;68.61
42001;BME280;27689;48.390;10.856;2023-02-18T14:29:32;96550.06;;;13.81;68.16
42001;BME280;27689;48.390;10.856;2023-02-18T14:32:16;96546.72;;;13.70;68.91
42001;BME280;27689;48.390;10.856;2023-02-18T14:35:19;96543.56;;;13.67;69.69
42001;BME280;27689;48.390;10.856;2023-02-18T14:41:36;96550.13;;;13.63;70.47
42001;BME280;27689;48.390;10.856;2023-02-18T14:50:46;96546.59;;;13.54;71.36
42001;BME280;27689;48.390;10.856;2023-02-18T14:53:43;96551.19;;;13.52;71.42
42001;BME280;27689;48.390;10.856;2023-02-18T14:56:28;96546.56;;;13.46;71.90
42001;BME280;27689;48.390;10.856;2023-02-18T14:59:13;96539.84;;;13.52;71.56
42001;BME280;27689;48.390;10.856;2023-02-18T15:01:57;96538.75;;;13.36;72.58
42001;BME280;27689;48.390;10.856;2023-02-18T15:04:41;96539.41;;;13.38;72.79
42001;BME280;27689;48.390;10.856;2023-02-18T15:07:25;96552.09;;;13.35;72.78
42001;BME280;27689;48.390;10.856;2023-02-18T15:10:14;96534.16;;;13.38;72.60
42001;BME280;27689;48.390;10.856;2023-02-18T15:13:01;96536.59;;;13.32;73.42
42001;BME280;27689;48.390;10.856;2023-02-18T15:15:49;96537.47;;;13.40;72.57
42001;BME280;27689;48.390;10.856;2023-02-18T15:18:48;96535.13;;;13.37;72.62
42001;BME280;27689;48.390;10.856;2023-02-18T15:21:38;96542.06;;;13.38;72.79
42001;BME280;27689;48.390;10.856;2023-02-18T15:27:15;96538.59;;;13.38;72.68
42001;BME280;27689;48.390;10.856;2023-02-18T15:30:27;96540.53;;;13.36;72.05
42001;BME280;27689;48.390;10.856;2023-02-18T15:33:12;96542.88;;;13.39;70.64
42001;BME280;27689;48.390;10.856;2023-02-18T15:36:01;96544.19;;;13.35;70.33
42001;BME280;27689;48.390;10.856;2023-02-18T15:38:45;96535.53;;;13.25;70.15
42001;BME280;27689;48.390;10.856;2023-02-18T15:41:30;96537.88;;;13.28;68.86
42001;BME280;27689;48.390;10.856;2023-02-18T15:44:15;96549.00;;;13.22;68.79
42001;BME280;27689;48.390;10.856;2023-02-18T15:47:06;96552.97;;;13.26;67.67
42001;BME280;27689;48.390;10.856;2023-02-18T15:49:54;96550.28;;;13.18;67.46
42001;BME280;27689;48.390;10.856;2023-02-18T15:52:39;96550.28;;;13.18;66.03
42001;BME280;27689;48.390;10.856;2023-02-18T15:55:33;96542.56;;;13.16;66.32
42001;BME280;27689;48.390;10.856;2023-02-18T15:58:26;96548.09;;;13.13;66.33
42001;BME280;27689;48.390;10.856;2023-02-18T16:01:25;96533.66;;;12.99;67.14
42001;BME280;27689;48.390;10.856;2023-02-18T16:04:12;96541.31;;;12.93;67.30
42001;BME280;27689;48.390;10.856;2023-02-18T16:07:00;96529.53;;;12.97;67.46
42001;BME280;27689;48.390;10.856;2023-02-18T16:09:45;96530.50;;;12.96;67.24
42001;BME280;27689;48.390;10.856;2023-02-18T16:12:30;96529.38;;;12.98;66.91
42001;BME280;27689;48.390;10.856;2023-02-18T16:15:29;96540.56;;;13.00;66.61
42001;BME280;27689;48.390;10.856;2023-02-18T16:18:39;96541.84;;;12.96;66.82
42001;BME280;27689;48.390;10.856;2023-02-18T16:21:30;96534.94;;;12.78;67.40
42001;BME280;27689;48.390;10.856;2023-02-18T16:24:28;96543.50;;;12.80;67.58
42001;BME280;27689;48.390;10.856;2023-02-18T16:27:15;96540.13;;;12.87;67.52
42001;BME280;27689;48.390;10.856;2023-02-18T16:30:30;96538.91;;;12.64;68.65
42001;BME280;27689;48.390;10.856;2023-02-18T16:33:15;96540.25;;;12.68;68.74
42001;BME280;27689;48.390;10.856;2023-02-18T16:35:59;96531.63;;;12.58;69.36